• Join FlightAware (Why Join?)
  • Login
  • US Flag 
07:07PM EDT


 

Airport Tracker/Info


-or-


 

Live Flight TrackerFlight Track Log ✈ FDX1 ✈ 21-Apr-2013 ✈ LFPG / CDG - KMEM

Flight Track Log - Related Links

Times and Time Zones

All times are in EDT time to prevent confusion due to time zone crossing. See the FDX1 flight status page for this flight to view local times or setup timezone preferences in your user account.

Time Position Orientation Groundspeed Altitude Reporting Facility
EDT Latitude Longitude Course Direction KTS MPH feet Rate Location/Type
06:18PM 49.0234 2.5674 72° East 180 207 800  Level FlightAware ADS-B
06:18PM 49.0241 2.5851 87° East 174 200 1,600 3,180 Climbing FlightAware ADS-B
06:19PM 49.0251 2.6041 85° East 173 199 2,400 2,760 Climbing FlightAware ADS-B
06:19PM 49.0269 2.6373 85° East 176 203 3,600 2,280 Climbing FlightAware ADS-B
06:19PM 49.0280 2.6574 85° East 199 229 4,000 1,320 Climbing FlightAware ADS-B
06:20PM 49.0295 2.6817 85° East 227 261 4,300 1,500 Climbing FlightAware ADS-B
06:20PM 49.0309 2.7082 85° East 248 285 4,800 2,040 Climbing FlightAware ADS-B
06:20PM 49.0325 2.7333 84° East 260 299 5,300 2,400 Climbing FlightAware ADS-B
06:20PM 49.0339 2.7440 79° East 262 302 5,600 3,300 Climbing FlightAware ADS-B
06:20PM 49.0352 2.7496 70° East 263 303 5,800 3,000 Climbing FlightAware ADS-B
06:20PM 49.0379 2.7576 63° Northeast 264 304 6,000 2,640 Climbing FlightAware ADS-B
06:20PM 49.0408 2.7640 55° Northeast 265 305 6,200 3,000 Climbing FlightAware ADS-B
06:21PM 49.0435 2.7685 48° Northeast 266 306 6,400 3,000 Climbing FlightAware ADS-B
06:21PM 49.0472 2.7735 41° Northeast 268 308 6,600 3,600 Climbing FlightAware ADS-B
06:21PM 49.0540 2.7802 33° Northeast 269 310 7,000 3,960 Climbing FlightAware ADS-B
06:21PM 49.0575 2.7827 26° Northeast 270 311 7,200 3,360 Climbing FlightAware ADS-B
06:21PM 49.0929 2.7807 358° North 270 311 8,800 3,120 Climbing FlightAware ADS-B
06:21PM 49.1024 2.7704 325° Northwest 286 329 9,200 2,760 Climbing FlightAware ADS-B
06:21PM 49.1061 2.7644 313° West 286 329 9,400 3,420 Climbing FlightAware ADS-B
06:22PM 49.1085 2.7594 306° West 287 330 9,600 2,520 Climbing FlightAware ADS-B
06:22PM 49.1109 2.7531 300° West 290 334 9,700 3,420 Climbing FlightAware ADS-B
06:22PM 49.1130 2.7456 293° West 291 335 10,000 3,720 Climbing FlightAware ADS-B
06:22PM 49.1149 2.7357 286° West 293 337 10,200 1,680 Climbing FlightAware ADS-B
06:22PM 49.1101 2.6715 264° West 328 377 11,000 1,440 Climbing FlightAware ADS-B
06:23PM 49.0988 2.5982 257° West 366 421 11,700 1,620 Climbing FlightAware ADS-B
06:23PM 49.0870 2.5155 258° West 393 452 12,700 2,280 Climbing FlightAware ADS-B
06:24PM 49.0830 2.4715 262° West 400 460 13,500 2,760 Climbing FlightAware ADS-B
06:24PM 49.0800 2.3830 267° West 410 472 14,900 720 Climbing FlightAware ADS-B
06:24PM 49.0782 2.3365 267° West 400 460 14,100 2,760 Descending FlightAware UK
06:25PM 49.0772 2.2870 267° West 418 481 16,400 2,820 Climbing FlightAware ADS-B
06:25PM 49.0749 2.2302 267° West 408 470 15,800 2,880 Descending FlightAware UK
06:25PM 49.0751 2.1955 267° West 423 487 17,900 2,880 Climbing FlightAware ADS-B
06:25PM 49.0734 2.1417 267° West 418 481 17,200 120 Descending FlightAware UK
06:26PM 49.0724 2.0872 268° West 418 481 18,000 5,760 Climbing FlightAware UK
06:26PM 49.0720 2.0790 268° West 431 496 19,600 6,000 Climbing FlightAware
06:26PM 49.0703 2.0077 268° West 437 503 20,500  Climbing FlightAware ADS-B
06:26PM 49.0694 1.9593 268° West 428 493 19,600  Descending FlightAware UK
06:27PM 49.0660 1.8814 266° West 436 502 20,500 2,280 Climbing FlightAware UK
06:27PM 49.0648 1.8251 268° West 444 511 21,200 6,240 Climbing FlightAware UK
06:27PM 49.0647 1.8085 268° West 453 521 22,900 2,220 Climbing FlightAware ADS-B
06:27PM 49.0623 1.7493 268° West 448 516 22,100 -180 Descending FlightAware UK
06:28PM 49.0606 1.6908 267° West 450 518 22,800 5,700 Climbing FlightAware UK
06:28PM 49.0610 1.6830 267° West 460 529 24,400 1,980 Climbing FlightAware
06:28PM 49.0588 1.6137 267° West 454 522 23,600 -540 Descending FlightAware UK
06:28PM 49.0566 1.5542 267° West 456 525 24,100 5,700 Climbing FlightAware UK
06:29PM 49.0570 1.5490 267° West 469 540 25,700 1,980 Climbing FlightAware
06:29PM 49.0545 1.4751 267° West 462 532 24,900 -480 Descending FlightAware UK
06:29PM 49.0526 1.4150 267° West 464 534 25,400 6,000 Climbing FlightAware UK
06:29PM 49.0530 1.4200 267° West 477 549 26,900 1,620 Climbing FlightAware
06:29PM 49.0502 1.3541 267° West 472 543 25,900 -900 Descending FlightAware UK
06:30PM 49.0481 1.2922 267° West 474 545 26,400 4,920 Climbing FlightAware UK
06:30PM 49.0470 1.2620 267° West 484 557 28,300 1,800 Climbing FlightAware
06:30PM 49.0443 1.1900 267° West 480 552 27,300 -840 Descending FlightAware UK
06:31PM 49.0419 1.1277 267° West 486 559 27,800 6,000 Climbing FlightAware UK
06:31PM 49.0420 1.1230 267° West 491 565 29,400 1,980 Climbing FlightAware
06:31PM 49.0398 1.0669 267° West 488 562 28,400 -1,140 Descending FlightAware UK
06:31PM 49.0376 1.0039 267° West 490 564 28,800 4,560 Climbing FlightAware UK
06:31PM 49.0370 0.9710 267° West 493 567 30,700 2,160 Climbing FlightAware
06:32PM 49.0338 0.8993 267° West 486 559 29,900 -540 Descending FlightAware UK
06:32PM 49.0314 0.8376 267° West 482 555 30,400 5,400 Climbing FlightAware UK
06:32PM 49.0310 0.8340 267° West 491 565 31,900 240 Climbing FlightAware
06:32PM 49.0283 0.7555 267° West 480 552 30,500 -2,220 Descending FlightAware UK
06:33PM 49.0259 0.6928 267° West 482 555 30,500 3,600 Level FlightAware UK
06:33PM 49.0250 0.6740 267° West 495 570 32,000  Climbing FlightAware
06:33PM 49.0227 0.6107 267° West 484 557 30,500 -2,580 Descending FlightAware UK
06:33PM 49.0202 0.5483 267° West 486 559 30,500 3,900 Level FlightAware UK
06:33PM 49.0200 0.5390 267° West 495 570 32,000  Climbing FlightAware
06:34PM 49.0168 0.4647 267° West 486 559 30,500 -2,460 Descending FlightAware UK
06:34PM 49.0142 0.4029 266° West 486 559 30,500 4,260 Level FlightAware UK
06:34PM 49.0140 0.4010 266° West 495 570 32,000  Climbing FlightAware
06:34PM 49.0110 0.3405 266° West 484 557 30,500 -2,760 Descending FlightAware UK
06:35PM 49.0078 0.2782 265° West 486 559 30,500 3,000 Level FlightAware UK
06:35PM 49.0080 0.2530 265° West 492 566 32,000  Climbing FlightAware
06:35PM 49.0033 0.1743 265° West 484 557 30,500 -2,160 Descending FlightAware UK
06:36PM 48.9999 0.0905 266° West 484 557 30,500  Level FlightAware UK
06:36PM 48.9971 0.0282 266° West 484 557 30,500  Level FlightAware UK
06:36PM 48.9943 -0.0327 266° West 484 557 30,500 3,600 Level FlightAware UK
06:36PM 48.9950 -0.0270 266° West 494 568 32,000  Climbing FlightAware
06:37PM 48.9904 -0.1164 266° West 484 557 30,500 -2,700 Descending FlightAware UK
06:37PM 48.9875 -0.1779 266° West 484 557 30,500 3,900 Level FlightAware UK
06:37PM 48.9870 -0.1910 266° West 493 567 32,000  Climbing FlightAware
06:37PM 48.9833 -0.2610 266° West 486 559 30,500 -2,520 Descending FlightAware UK
06:38PM 48.9802 -0.3231 266° West 484 557 30,500 4,080 Level FlightAware UK
06:38PM 48.9810 -0.3280 266° West 492 566 32,000  Climbing FlightAware
06:38PM 48.9761 -0.4060 266° West 484 557 30,500  Descending FlightAware UK
06:38PM 48.9750 -0.4400 266° West 491 565 32,000  Climbing FlightAware
06:38PM 48.9731 -0.4674 266° West 484 557 30,500 -6,000 Descending FlightAware UK
06:38PM 48.9709 -0.5093 266° West 484 557 30,500  Level FlightAware UK
06:39PM 48.9679 -0.5705 266° West 484 557 30,500 2,520 Level FlightAware UK
06:39PM 48.9670 -0.6110 266° West 490 564 32,000  Climbing FlightAware
06:39PM 48.9616 -0.6935 266° West 482 555 30,500  Descending FlightAware UK
06:40PM 48.9620 -0.7110 265° West 492 566 32,000  Climbing FlightAware
06:40PM 48.9584 -0.7547 265° West 484 557 30,500 -4,500 Descending FlightAware UK
06:40PM 48.9551 -0.8173 265° West 484 557 30,500  Level FlightAware UK
06:40PM 48.9516 -0.8785 265° West 482 555 30,500 3,600 Level FlightAware UK
06:40PM 48.9520 -0.8850 265° West 492 566 32,000  Climbing FlightAware
06:41PM 48.9472 -0.9611 265° West 484 557 30,500 -2,580 Descending FlightAware UK
06:41PM 48.9439 -1.0232 265° West 484 557 30,500 3,180 Level FlightAware UK
06:41PM 48.9430 -1.0470 265° West 493 567 32,000  Climbing FlightAware
06:41PM 48.9385 -1.1273 265° West 484 557 30,500 -2,400 Descending FlightAware UK
06:42PM 48.9350 -1.1887 265° West 486 559 30,500 3,600 Level FlightAware UK
06:42PM 48.9350 -1.2050 265° West 491 565 32,000  Climbing FlightAware
06:42PM 48.9301 -1.2715 265° West 484 557 30,500 -2,580 Descending FlightAware UK
06:42PM 48.9265 -1.3333 265° West 484 557 30,500 3,900 Level FlightAware UK
06:43PM 48.9270 -1.3430 265° West 491 565 32,000  Climbing FlightAware
06:43PM 48.9218 -1.4157 265° West 488 562 30,500  Descending FlightAware UK
06:43PM 48.9190 -1.4720 265° West 489 563 32,000  Climbing FlightAware
06:43PM 48.9171 -1.4980 265° West 488 562 30,500 -6,000 Descending FlightAware UK
06:43PM 48.9145 -1.5386 265° West 486 559 30,500  Level FlightAware UK
06:44PM 48.9110 -1.6002 265° West 484 557 30,500 3,000 Level FlightAware UK
06:44PM 48.9100 -1.6230 265° West 487 560 32,000  Climbing FlightAware
06:44PM 48.9082 -1.7021 265° West 484 557 30,500 -2,520 Descending FlightAware UK
06:45PM 48.9088 -1.7664 271° West 484 557 30,500  Level FlightAware UK
06:45PM 48.9123 -1.8243 275° West 482 555 30,500 2,640 Level FlightAware UK
06:45PM 48.9140 -1.8600 275° West 485 558 32,000  Climbing FlightAware
06:46PM 48.9181 -1.9664 275° West 484 557 30,500 -2,100 Descending FlightAware UK
06:46PM 48.9206 -2.0282 274° West 484 557 30,500 3,600 Level FlightAware UK
06:46PM 48.9220 -2.0400 274° West 486 559 32,000  Climbing FlightAware
06:46PM 48.9248 -2.1293 274° West 486 559 30,500 -1,920 Descending FlightAware UK
06:47PM 48.9279 -2.2112 273° West 488 562 30,500 3,300 Level FlightAware UK
06:47PM 48.9280 -2.1930 273° West 483 556 32,000  Climbing FlightAware
06:47PM 48.9300 -2.2723 273° West 486 559 30,500 -2,760 Descending FlightAware UK
06:47PM 48.9321 -2.3323 273° West 486 559 30,500 3,600 Level FlightAware UK
06:47PM 48.9330 -2.3440 273° West 479 551 32,000  Climbing FlightAware
06:48PM 48.9348 -2.4121 273° West 486 559 30,500 -2,580 Descending FlightAware UK
06:48PM 48.9370 -2.4727 273° West 484 557 30,500 3,900 Level FlightAware UK
06:48PM 48.9380 -2.4820 273° West 477 549 32,000  Climbing FlightAware
06:48PM 48.9398 -2.5535 273° West 482 555 30,500 -2,460 Descending FlightAware UK
06:49PM 48.9421 -2.6132 273° West 484 557 30,500 4,260 Level FlightAware UK
06:49PM 48.9420 -2.5920 273° West 476 548 32,000  Climbing FlightAware
06:49PM 48.9442 -2.6741 273° West 484 557 30,500 -2,760 Descending FlightAware UK
06:49PM 48.9463 -2.7336 273° West 482 555 30,500  Level FlightAware UK
06:50PM 48.9483 -2.7931 273° West 482 555 30,500 3,300 Level FlightAware UK
06:50PM 48.9490 -2.8090 273° West 476 548 32,000  Climbing FlightAware
06:50PM 48.9507 -2.8730 273° West 484 557 30,500 -2,760 Descending FlightAware UK
06:50PM 48.9526 -2.9331 273° West 484 557 30,500  Level FlightAware UK
06:51PM 48.9545 -2.9930 273° West 484 557 30,500 4,080 Level FlightAware UK
06:51PM 48.9550 -2.9980 273° West 475 547 32,000  Climbing FlightAware
06:51PM 48.9546 -3.0720 273° West 484 557 30,500 -2,400 Descending FlightAware UK
06:51PM 48.9546 -3.1332 270° West 484 557 30,500 4,260 Level FlightAware UK
06:51PM 48.9550 -3.1310 270° West 475 547 32,000  Climbing FlightAware
06:52PM 48.9545 -3.1927 270° West 484 557 30,500 -2,340 Descending FlightAware UK
06:52PM 48.9583 -3.2722 274° West 484 557 30,500 3,060 Level FlightAware UK
06:52PM 48.9590 -3.2820 274° West 473 544 32,000  Climbing FlightAware
06:52PM 48.9614 -3.3517 274° West 482 555 30,500  Descending FlightAware UK
06:53PM 48.9640 -3.3960 274° West 474 545 32,000  Climbing FlightAware
06:53PM 48.9638 -3.4111 274° West 484 557 30,500 -4,740 Descending FlightAware UK
06:53PM 48.9662 -3.4709 274° West 482 555 30,500  Level FlightAware UK
06:53PM 48.9681 -3.5300 273° West 482 555 30,500 3,420 Level FlightAware UK
06:53PM 48.9690 -3.5350 273° West 474 545 32,000  Climbing FlightAware
06:54PM 48.9708 -3.6099 273° West 482 555 30,500  Descending FlightAware UK
06:54PM 48.9740 -3.6900 273° West 475 547 32,000  Climbing FlightAware
06:54PM 48.9740 -3.7100 273° West 482 555 30,500 -3,600 Descending FlightAware UK
06:55PM 48.9762 -3.7894 273° West 482 555 30,500  Level FlightAware UK
06:55PM 48.9779 -3.8495 272° West 482 555 30,500 4,500 Level FlightAware UK
06:55PM 48.9780 -3.8400 272° West 476 548 32,000  Climbing FlightAware
06:55PM 48.9795 -3.9097 272° West 484 557 30,500 -2,700 Descending FlightAware UK
06:56PM 48.9807 -3.9698 272° West 486 559 30,500 3,720 Level FlightAware UK
06:56PM 48.9810 -3.9720 272° West 474 545 32,000  Climbing FlightAware
06:56PM 48.9821 -4.0498 272° West 484 557 30,500  Descending FlightAware UK
06:56PM 48.9830 -4.1000 272° West 471 542 32,000  Climbing FlightAware
06:57PM 48.9849 -4.1895 272° West 484 557 30,500 -2,400 Descending FlightAware UK
06:57PM 48.9861 -4.2482 272° West 482 555 30,500 3,600 Level FlightAware UK
06:57PM 48.9860 -4.2550 272° West 470 541 32,000  Climbing FlightAware
06:57PM 48.9875 -4.3266 272° West 482 555 30,500 -2,700 Descending FlightAware UK
06:58PM 48.9885 -4.3853 271° West 482 555 30,500 3,900 Level FlightAware UK
06:58PM 48.9890 -4.3870 271° West 471 542 32,000  Climbing FlightAware
06:58PM 48.9898 -4.4651 271° West 484 557 30,500 -2,460 Descending FlightAware UK
06:58PM 48.9909 -4.5246 272° West 484 557 30,500 4,260 Level FlightAware UK
06:58PM 48.9910 -4.5210 272° West 471 542 32,000  Climbing FlightAware
06:59PM 48.9920 -4.5848 272° West 484 557 30,500 -2,760 Descending FlightAware UK
06:59PM 48.9929 -4.6436 271° West 484 557 30,500 3,000 Level FlightAware UK
06:59PM 48.9940 -4.6670 271° West 470 541 32,000  Climbing FlightAware
06:59PM 48.9947 -4.7427 271° West 486 559 30,500  Descending FlightAware UK
07:00PM 48.9960 -4.8030 271° West 468 539 32,000  Climbing FlightAware
07:00PM 48.9953 -4.8214 271° West 482 555 30,500 -3,600 Descending FlightAware UK
07:00PM 48.9965 -4.8995 271° West 484 557 30,500 2,340 Level FlightAware UK
07:00PM 48.9980 -4.9340 271° West 467 537 32,000  Climbing FlightAware
07:01PM 48.9973 -4.9586 271° West 484 557 30,500 -6,000 Descending FlightAware UK
07:01PM 48.9978 -4.9980 271° West 482 555 30,500  Level FlightAware UK
07:01PM 48.9989 -5.0765 271° West 484 557 30,500 3,000 Level FlightAware UK
07:01PM 49.0000 -5.0800 271° West 466 536 32,000  Climbing FlightAware
07:02PM 48.9999 -5.1551 271° West 484 557 30,500 -2,160 Descending FlightAware UK
07:02PM 49.0009 -5.2329 271° West 484 557 30,500 2,400 Level FlightAware UK
07:02PM 49.0010 -5.2340 271° West 464 534 32,000  Climbing FlightAware
07:02PM 49.0018 -5.3313 271° West 484 557 30,500 -2,580 Descending FlightAware UK
07:03PM 49.0024 -5.3894 271° West 484 557 30,500 3,180 Level FlightAware UK
07:03PM 49.0030 -5.4100 271° West 464 534 32,000  Climbing FlightAware
07:03PM 49.0033 -5.4872 271° West 484 557 30,500 -2,400 Descending FlightAware UK
07:04PM 49.0038 -5.5459 271° West 484 557 30,500 4,500 Level FlightAware UK
07:04PM 49.0050 -5.5420 271° West 464 534 32,000  Climbing FlightAware
07:04PM 49.0044 -5.6045 271° West 484 557 30,500 -2,700 Descending FlightAware UK
07:04PM 49.0048 -5.6637 271° West 484 557 30,500 3,720 Level FlightAware UK
07:04PM 49.0060 -5.6710 271° West 463 533 32,000  Climbing FlightAware
07:05PM 49.0056 -5.7411 271° West 484 557 30,500 -2,520 Descending FlightAware UK
07:05PM 49.0060 -5.7995 271° West 484 557 30,500 3,300 Level FlightAware UK
07:05PM 49.0070 -5.8170 271° West 462 532 32,000  Climbing FlightAware
07:05PM 49.0064 -5.8774 271° West 482 555 30,500 -2,760 Descending FlightAware UK
07:06PM 49.0067 -5.9359 271° West 482 555 30,500 3,600 Level FlightAware UK
07:06PM 49.0070 -5.9470 271° West 463 533 32,000  Climbing FlightAware
07:06PM 49.0071 -6.0139 271° West 482 555 30,500 -2,580 Descending FlightAware UK
07:06PM 49.0074 -6.0725 270° West 482 555 30,500 3,180 Level FlightAware UK
07:06PM 49.0080 -6.0910 270° West 464 534 32,000  Climbing FlightAware
07:07PM 49.0078 -6.1703 270° West 482 555 30,500 -2,400 Descending FlightAware UK
07:07PM 49.0081 -6.2291 270° West 482 555 30,500 4,500 Level FlightAware UK
07:07PM 49.0080 -6.2240 270° West 466 536 32,000  Climbing FlightAware
07:07PM 49.0083 -6.2880 270° West 484 557 30,500 -2,700 Descending FlightAware UK
07:08PM 49.0084 -6.3471 270° West 484 557 30,500 3,060 Level FlightAware UK
07:08PM 49.0090 -6.3720 270° West 465 535 32,000  Climbing FlightAware
07:08PM 49.0084 -6.4843 270° West 482 555 30,500  Descending FlightAware UK
07:08PM 49.0090 -6.5030 270° West 462 532 32,000  Climbing FlightAware
07:09PM 49.0083 -6.5616 270° West 484 557 30,500 -2,760 Descending FlightAware UK
07:09PM 49.0084 -6.6201 270° West 484 557 30,500 3,600 Level FlightAware UK
07:09PM 49.0090 -6.6330 270° West 463 533 32,000  Climbing FlightAware
07:09PM 49.0084 -6.6982 270° West 484 557 30,500 -2,220 Descending FlightAware UK
07:10PM 49.0084 -6.7761 270° West 486 559 30,500 2,340 Level FlightAware UK
07:10PM 49.0090 -6.8100 270° West 462 532 32,000  Climbing FlightAware
07:10PM 49.0081 -6.8929 270° West 486 559 30,500 -2,280 Descending FlightAware UK
07:11PM 49.0081 -6.9512 270° West 486 559 30,500 4,980 Level FlightAware UK
07:11PM 49.0090 -6.9410 270° West 459 528 32,000  Climbing FlightAware
07:11PM 49.0103 -7.0081 270° West 484 557 30,500 -2,520 Descending FlightAware UK
07:11PM 49.0124 -7.0659 273° West 484 557 30,500 3,300 Level FlightAware UK
07:11PM 49.0130 -7.0850 273° West 458 527 32,000  Climbing FlightAware
07:12PM 49.0147 -7.1430 273° West 484 557 30,500 -2,760 Descending FlightAware UK
07:12PM 49.0162 -7.2010 272° West 484 557 30,500 3,000 Level FlightAware UK
07:12PM 49.0170 -7.2300 272° West 458 527 32,000  Climbing FlightAware
07:13PM 49.0188 -7.2977 272° West 484 557 30,500 -2,520 Descending FlightAware UK
07:13PM 49.0205 -7.3558 273° West 486 559 30,500 4,080 Level FlightAware UK
07:13PM 49.0210 -7.3560 273° West 458 527 32,000  Climbing FlightAware
07:13PM 49.0229 -7.4331 273° West 484 557 30,500 -2,400 Descending FlightAware UK
07:14PM 49.0247 -7.4910 273° West 484 557 30,500 4,500 Level FlightAware UK
07:14PM 49.0250 -7.4880 273° West 458 527 32,000  Climbing FlightAware
07:14PM 49.0274 -7.5876 273° West 484 557 30,500  Descending FlightAware UK
07:14PM 49.0290 -7.6330 272° West 457 526 32,000  Climbing FlightAware
07:14PM 49.0290 -7.6455 272° West 484 557 30,500 -4,740 Descending FlightAware UK
07:15PM 49.0306 -7.7034 272° West 484 557 30,500  Level FlightAware UK
07:15PM 49.0322 -7.7612 272° West 486 559 30,500 4,260 Level FlightAware UK
07:15PM 49.0320 -7.7510 272° West 457 526 32,000  Climbing FlightAware
07:15PM 49.0337 -7.8189 272° West 486 559 30,500 -2,760 Descending FlightAware UK
07:16PM 49.0352 -7.8766 272° West 484 557 30,500 3,000 Level FlightAware UK
07:16PM 49.0360 -7.9010 272° West 455 524 32,000  Climbing FlightAware
07:16PM 49.0375 -7.9726 272° West 484 557 30,500  Descending FlightAware UK
07:16PM 49.0390 -8.0140 272° West 455 524 32,000  Climbing FlightAware
07:16PM 49.0389 -8.0301 272° West 484 557 30,500 -4,740 Descending FlightAware UK
07:17PM 49.0403 -8.0870 272° West 484 557 30,500  Level FlightAware UK
07:17PM 49.0416 -8.1445 272° West 484 557 30,500 2,880 Level FlightAware UK
07:17PM 49.0430 -8.1750 272° West 454 522 32,000  Climbing FlightAware
07:17PM 49.0438 -8.2402 272° West 486 559 30,500 -2,580 Descending FlightAware UK
07:18PM 49.0452 -8.2977 272° West 486 559 30,500 4,980 Level FlightAware UK
07:18PM 49.0450 -8.2890 272° West 453 521 32,000  Climbing FlightAware
07:18PM 49.0465 -8.3550 272° West 484 557 30,500 -2,520 Descending FlightAware UK
07:18PM 49.0477 -8.4124 272° West 484 557 30,500 4,080 Level FlightAware UK
07:18PM 49.0480 -8.4140 272° West 452 520 32,000  Climbing FlightAware
07:19PM 49.0497 -8.5078 272° West 484 557 30,500 -2,100 Descending FlightAware UK
07:19PM 49.0508 -8.5650 272° West 484 557 30,500 4,680 Level FlightAware UK
07:19PM 49.0510 -8.5580 272° West 453 521 32,000  Climbing FlightAware
07:19PM 49.0519 -8.6223 272° West 484 557 30,500 -2,580 Descending FlightAware UK
07:20PM 49.0529 -8.6796 272° West 484 557 30,500  Level FlightAware UK
07:20PM 49.0541 -8.7369 272° West 484 557 30,500 4,500 Level FlightAware UK
07:20PM 49.0540 -8.7260 272° West 454 522 32,000  Climbing FlightAware
07:20PM 49.0551 -8.7943 272° West 484 557 30,500 -2,700 Descending FlightAware UK
07:21PM 49.0563 -8.8518 272° West 484 557 30,500 2,640 Level FlightAware UK
07:21PM 49.0570 -8.8880 271° West 453 521 32,000  Climbing FlightAware
07:21PM 49.0576 -8.9285 271° West 484 557 30,500 -4,500 Descending FlightAware UK
07:21PM 49.0581 -8.9667 271° West 484 557 30,500  Level FlightAware UK
07:22PM 49.0589 -9.0242 271° West 484 557 30,500 2,520 Level FlightAware UK
07:22PM 49.0570 -9.0460 271° West 453 521 32,000 1,560 Climbing FlightAware
07:22PM 49.0570 -9.1550 270° West 453 521 32,000  Level FlightAware
07:23PM 49.0570 -9.2630 270° West 453 521 32,000  Level FlightAware
07:24PM 49.0570 -9.3720 270° West 453 521 32,000  Level FlightAware
07:24PM 49.0570 -9.4810 270° West 453 521 32,000  Level FlightAware
07:25PM 49.0570 -9.5900 270° West 453 521 32,000  Level FlightAware
07:26PM 49.0570 -9.7260 270° West 453 521 32,000  Level FlightAware
07:27PM 49.0570 -9.8340 270° West 453 521 32,000  Level FlightAware
07:27PM 49.0570 -9.9430 270° West 453 521 32,000  Level FlightAware
07:28PM 49.0570 -10.0520 270° West 453 521 32,000  Level FlightAware
07:29PM 49.0570 -10.1880 270° West 453 521 32,000  Level FlightAware
07:29PM 49.0570 -10.2960 270° West 453 521 32,000  Level FlightAware
07:30PM 49.0570 -10.4050 270° West 453 521 32,000  Level FlightAware
07:31PM 49.0570 -10.5140 270° West 453 521 32,000  Level FlightAware
07:33PM 49.0609 -10.8487 271° West  Level FlightAware Approximate
07:34PM 49.0628 -11.0438 271° West  Level FlightAware Approximate
07:35PM 49.0643 -11.2388 271° West  Level FlightAware Approximate
07:36PM 49.0655 -11.4338 271° West  Level FlightAware Approximate
07:37PM 49.0663 -11.6289 270° West  Level FlightAware Approximate
07:38PM 49.0586 -11.8231 262° West  Level FlightAware Approximate
07:39PM 49.0409 -12.0162 262° West  Level FlightAware Approximate
07:40PM 49.0229 -12.2092 262° West  Level FlightAware Approximate
07:41PM 49.0046 -12.4020 262° West  Level FlightAware Approximate
07:42PM 48.9860 -12.5947 262° West  Level FlightAware Approximate
07:43PM 48.9670 -12.7873 262° West  Level FlightAware Approximate
07:44PM 48.9478 -12.9797 261° West  Level FlightAware Approximate
07:45PM 48.9282 -13.1719 261° West  Level FlightAware Approximate
07:46PM 48.9081 -13.3640 261° West  Level FlightAware Approximate
07:47PM 48.8876 -13.5559 261° West  Level FlightAware Approximate
07:48PM 48.8668 -13.7476 261° West  Level FlightAware Approximate
07:49PM 48.8457 -13.9392 261° West  Level FlightAware Approximate
07:50PM 48.8242 -14.1306 260° West  Level FlightAware Approximate
07:51PM 48.8024 -14.3218 260° West  Level FlightAware Approximate
07:52PM 48.7803 -14.5128 260° West  Level FlightAware Approximate
07:53PM 48.7579 -14.7037 260° West  Level FlightAware Approximate
07:54PM 48.7352 -14.8945 260° West  Level FlightAware Approximate
07:55PM 48.7122 -15.0850 260° West  Level FlightAware Approximate
07:56PM 48.6888 -15.2754 260° West  Level FlightAware Approximate
07:57PM 48.6652 -15.4656 259° West  Level FlightAware Approximate
07:58PM 48.6412 -15.6556 259° West  Level FlightAware Approximate
07:59PM 48.6169 -15.8454 259° West  Level FlightAware Approximate
08:00PM 48.5923 -16.0351 259° West  Level FlightAware Approximate
08:01PM 48.5674 -16.2246 259° West  Level FlightAware Approximate
08:02PM 48.5422 -16.4138 259° West  Level FlightAware Approximate
08:03PM 48.5166 -16.6029 259° West  Level FlightAware Approximate
08:04PM 48.4908 -16.7918 258° West  Level FlightAware Approximate
08:05PM 48.4646 -16.9805 258° West  Level FlightAware Approximate
08:06PM 48.4382 -17.1690 258° West  Level FlightAware Approximate
08:07PM 48.4114 -17.3573 258° West  Level FlightAware Approximate
08:08PM 48.3843 -17.5455 258° West  Level FlightAware Approximate
08:09PM 48.3570 -17.7334 258° West  Level FlightAware Approximate
08:10PM 48.3293 -17.9211 258° West  Level FlightAware Approximate
08:11PM 48.3013 -18.1086 257° West  Level FlightAware Approximate
08:12PM 48.2730 -18.2959 257° West  Level FlightAware Approximate
08:13PM 48.2444 -18.4830 257° West  Level FlightAware Approximate
08:14PM 48.2155 -18.6698 257° West  Level FlightAware Approximate
08:15PM 48.1863 -18.8565 257° West  Level FlightAware Approximate
08:16PM 48.1568 -19.0429 257° West  Level FlightAware Approximate
08:17PM 48.1269 -19.2292 257° West  Level FlightAware Approximate
08:18PM 48.0968 -19.4152 256° West  Level FlightAware Approximate
08:19PM 48.0664 -19.6010 256° West  Level FlightAware Approximate
08:20PM 48.0357 -19.7866 256° West  Level FlightAware Approximate
08:20PM 48.0000 -20.0000 257° West 511 588 32,000  Level ETMS Enhanced Traffic Management System
08:21PM 48.0047 -19.9719 256° West  Level FlightAware Approximate
08:22PM 47.9760 -20.1580 257° West  Level FlightAware Approximate
08:23PM 47.9475 -20.3440 257° West  Level FlightAware Approximate
08:24PM 47.9187 -20.5299 257° West  Level FlightAware Approximate
08:25PM 47.8895 -20.7155 257° West  Level FlightAware Approximate
08:26PM 47.8068 -21.2381 256° West 511 588 32,000  Level FlightAware Transoceanic
08:27PM 47.7733 -21.4435 256° West 511 588 32,000  Level FlightAware Transoceanic
08:28PM 47.7395 -21.6487 256° West 511 588 32,000  Level FlightAware Transoceanic
08:29PM 47.7053 -21.8536 256° West 511 588 32,000  Level FlightAware Transoceanic
08:30PM 47.6707 -22.0582 256° West 511 588 32,000  Level FlightAware Transoceanic
08:31PM 47.6357 -22.2626 256° West 511 588 32,000  Level FlightAware Transoceanic
08:32PM 47.6004 -22.4667 256° West 511 588 32,000  Level FlightAware Transoceanic
08:33PM 47.5648 -22.6705 255° West 511 588 32,000  Level FlightAware Transoceanic
08:34PM 47.5287 -22.8740 255° West 511 588 32,000  Level FlightAware Transoceanic
08:35PM 47.4924 -23.0772 255° West 511 588 32,000  Level FlightAware Transoceanic
08:36PM 47.4556 -23.2802 255° West 511 588 32,000  Level FlightAware Transoceanic
08:37PM 47.4185 -23.4829 255° West 511 588 32,000  Level FlightAware Transoceanic
08:38PM 47.3810 -23.6853 255° West 511 588 32,000  Level FlightAware Transoceanic
08:39PM 47.3432 -23.8874 254° West 511 588 32,000  Level FlightAware Transoceanic
08:40PM 47.3050 -24.0892 254° West 511 588 32,000  Level FlightAware Transoceanic
08:41PM 47.2665 -24.2907 254° West 511 588 32,000  Level FlightAware Transoceanic
08:42PM 47.2276 -24.4919 254° West 511 588 32,000  Level FlightAware Transoceanic
08:43PM 47.1884 -24.6929 254° West 511 588 32,000  Level FlightAware Transoceanic
08:44PM 47.1488 -24.8935 254° West 511 588 32,000  Level FlightAware Transoceanic
08:45PM 47.1089 -25.0938 254° West 511 588 32,000  Level FlightAware Transoceanic
08:46PM 47.0686 -25.2939 253° West 511 588 32,000  Level FlightAware Transoceanic
08:47PM 47.0280 -25.4936 253° West 511 588 32,000  Level FlightAware Transoceanic
08:48PM 46.9870 -25.6930 253° West 511 588 32,000  Level FlightAware Transoceanic
08:49PM 46.9457 -25.8921 253° West 511 588 32,000  Level FlightAware Transoceanic
08:50PM 46.9040 -26.0909 253° West 511 588 32,000  Level FlightAware Transoceanic
08:51PM 46.8620 -26.2894 253° West 511 588 32,000  Level FlightAware Transoceanic
08:52PM 46.8197 -26.4876 253° West 511 588 32,000  Level FlightAware Transoceanic
08:53PM 46.7770 -26.6855 252° West 511 588 32,000  Level FlightAware Transoceanic
08:54PM 46.7340 -26.8830 252° West 511 588 32,000  Level FlightAware Transoceanic
08:55PM 46.6906 -27.0803 252° West 511 588 32,000  Level FlightAware Transoceanic
08:56PM 46.6469 -27.2772 252° West 511 588 32,000  Level FlightAware Transoceanic
08:57PM 46.6028 -27.4738 252° West 511 588 32,000  Level FlightAware Transoceanic
08:58PM 46.5584 -27.6701 252° West 511 588 32,000  Level FlightAware Transoceanic
08:59PM 46.5137 -27.8661 252° West 511 588 32,000  Level FlightAware Transoceanic
09:00PM 46.4687 -28.0617 251° West 511 588 32,000  Level FlightAware Transoceanic
09:01PM 46.4233 -28.2570 251° West 511 588 32,000  Level FlightAware Transoceanic
09:02PM 46.3776 -28.4520 251° West 511 588 32,000  Level FlightAware Transoceanic
09:03PM 46.3315 -28.6467 251° West 511 588 32,000  Level FlightAware Transoceanic
09:04PM 46.2851 -28.8410 251° West 511 588 32,000  Level FlightAware Transoceanic
09:05PM 46.2384 -29.0350 251° West 511 588 32,000  Level FlightAware Transoceanic
09:06PM 46.1914 -29.2287 251° West 511 588 32,000  Level FlightAware Transoceanic
09:07PM 46.1440 -29.4220 250° West 511 588 32,000  Level FlightAware Transoceanic
09:08PM 46.0964 -29.6150 250° West 511 588 32,000  Level FlightAware Transoceanic
09:09PM 46.0483 -29.8077 250° West 511 588 32,000  Level FlightAware Transoceanic
09:10PM 46.0049 -29.9807 250° West  Level FlightAware Approximate
09:11PM 45.9611 -30.1535 250° West  Level FlightAware Approximate
09:12PM 45.9785 -30.1396 258° West  Level FlightAware Approximate
09:13PM 45.9507 -30.3190 257° West  Level FlightAware Approximate
09:14PM 45.9225 -30.4983 257° West  Level FlightAware Approximate
09:15PM 45.8941 -30.6773 257° West  Level FlightAware Approximate
09:16PM 45.8654 -30.8562 257° West  Level FlightAware Approximate
09:17PM 45.8364 -31.0349 257° West  Level FlightAware Approximate
09:18PM 45.8071 -31.2134 257° West  Level FlightAware Approximate
09:19PM 45.7776 -31.3918 257° West  Level FlightAware Approximate
09:20PM 45.7477 -31.5699 257° West  Level FlightAware Approximate
09:21PM 45.7177 -31.7478 256° West  Level FlightAware Approximate
09:22PM 45.6873 -31.9256 256° West  Level FlightAware Approximate
09:23PM 45.6566 -32.1031 256° West  Level FlightAware Approximate
09:24PM 45.6257 -32.2805 256° West  Level FlightAware Approximate
09:25PM 45.5945 -32.4576 256° West  Level FlightAware Approximate
09:26PM 45.5630 -32.6346 256° West  Level FlightAware Approximate
09:27PM 45.5313 -32.8114 256° West  Level FlightAware Approximate
09:28PM 45.4995 -32.9880 256° West  Level FlightAware Approximate
09:29PM 45.4674 -33.1645 256° West  Level FlightAware Approximate
09:30PM 45.4351 -33.3407 255° West  Level FlightAware Approximate
09:31PM 45.4025 -33.5168 255° West  Level FlightAware Approximate
09:32PM 45.3697 -33.6926 255° West  Level FlightAware Approximate
09:33PM 45.3365 -33.8682 255° West  Level FlightAware Approximate
09:34PM 45.3031 -34.0437 255° West  Level FlightAware Approximate
09:35PM 45.2694 -34.2189 255° West  Level FlightAware Approximate
09:36PM 45.2355 -34.3939 255° West  Level FlightAware Approximate
09:37PM 45.2013 -34.5687 255° West  Level FlightAware Approximate
09:38PM 45.1668 -34.7433 254° West  Level FlightAware Approximate
09:39PM 45.1320 -34.9177 254° West  Level FlightAware Approximate
09:40PM 45.0970 -35.0918 254° West  Level FlightAware Approximate
09:41PM 45.0617 -35.2658 254° West  Level FlightAware Approximate
09:42PM 45.0262 -35.4395 254° West  Level FlightAware Approximate
09:43PM 44.9905 -35.6131 254° West  Level FlightAware Approximate
09:44PM 44.9546 -35.7865 254° West  Level FlightAware Approximate
09:45PM 44.9184 -35.9596 254° West  Level FlightAware Approximate
09:46PM 44.8821 -36.1326 254° West  Level FlightAware Approximate
09:47PM 44.8454 -36.3053 253° West  Level FlightAware Approximate
09:48PM 44.8085 -36.4778 253° West  Level FlightAware Approximate
09:49PM 44.7713 -36.6501 253° West  Level FlightAware Approximate
09:50PM 44.7339 -36.8222 253° West  Level FlightAware Approximate
09:51PM 44.6962 -36.9940 253° West  Level FlightAware Approximate
09:52PM 44.6583 -37.1656 253° West  Level FlightAware Approximate
09:53PM 44.6201 -37.3370 253° West  Level FlightAware Approximate
09:54PM 44.5816 -37.5082 253° West  Level FlightAware Approximate
09:55PM 44.5429 -37.6791 252° West  Level FlightAware Approximate
09:56PM 44.5039 -37.8498 252° West  Level FlightAware Approximate
09:57PM 44.4647 -38.0203 252° West  Level FlightAware Approximate
09:58PM 44.4252 -38.1906 252° West  Level FlightAware Approximate
09:59PM 44.3855 -38.3606 252° West  Level FlightAware Approximate
10:00PM 44.3455 -38.5304 252° West  Level FlightAware Approximate
10:01PM 44.3053 -38.7000 252° West  Level FlightAware Approximate
10:01PM 44.0000 -40.0000 273° West 500 575 35,000  Level New York Oceanic (ODAPS)
10:02PM 44.2648 -38.8693 252° West  Level FlightAware Approximate
10:03PM 44.2245 -39.0386 252° West  Level FlightAware Approximate
10:04PM 44.1856 -39.2084 252° West  Level FlightAware Approximate
10:05PM 44.1464 -39.3779 252° West  Level FlightAware Approximate
10:06PM 44.1069 -39.5473 252° West  Level FlightAware Approximate
10:07PM 44.0445 -41.1519 273° West 500 575 35,000  Level FlightAware Transoceanic
10:07PM 44.0500 -41.3500 273° West 494 568 35,000  Level New York Oceanic (ODAPS)
10:08PM 44.0508 -41.3441 273° West 500 575 35,000  Level FlightAware Transoceanic
10:09PM 44.0568 -41.5363 272° West 500 575 35,000  Level FlightAware Transoceanic
10:10PM 44.0625 -41.7285 272° West 500 575 35,000  Level FlightAware Transoceanic
10:11PM 44.0678 -41.9207 272° West 500 575 35,000  Level FlightAware Transoceanic
10:12PM 44.0728 -42.1130 272° West 500 575 35,000  Level FlightAware Transoceanic
10:13PM 44.0775 -42.3053 272° West 500 575 35,000  Level FlightAware Transoceanic
10:14PM 44.0811 -42.5028 272° West 494 568 35,000  Level FlightAware Transoceanic
10:15PM 44.0851 -42.6951 272° West 494 568 35,000  Level FlightAware Transoceanic
10:16PM 44.0888 -42.8873 271° West 494 568 35,000  Level FlightAware Transoceanic
10:17PM 44.0923 -43.0796 271° West 494 568 35,000  Level FlightAware Transoceanic
10:18PM 44.0953 -43.2720 271° West 494 568 35,000  Level FlightAware Transoceanic
10:19PM 44.0981 -43.4643 271° West 494 568 35,000  Level FlightAware Transoceanic
10:20PM 44.1005 -43.6566 271° West 494 568 35,000  Level FlightAware Transoceanic
10:21PM 44.1027 -43.8490 271° West 494 568 35,000  Level FlightAware Transoceanic
10:21PM 44.1000 -44.0000 271° West 487 560 35,000  Level New York Oceanic (ODAPS)
10:22PM 44.1045 -44.0414 271° West 494 568 35,000  Level FlightAware Transoceanic
10:23PM 44.1059 -44.2338 271° West 494 568 35,000  Level FlightAware Transoceanic
10:24PM 44.1071 -44.4262 270° West 494 568 35,000  Level FlightAware Transoceanic
10:25PM 44.1079 -44.6186 270° West 494 568 35,000  Level FlightAware Transoceanic
10:26PM 44.1084 -44.8110 270° West 494 568 35,000  Level FlightAware Transoceanic
10:27PM 44.1086 -45.0034 270° West 494 568 35,000  Level FlightAware Transoceanic
10:28PM 44.1052 -45.1260 270° West 487 560 35,000  Level FlightAware Transoceanic
10:29PM 44.1050 -45.3137 270° West 487 560 35,000  Level FlightAware Transoceanic
10:30PM 44.1045 -45.5014 270° West 487 560 35,000  Level FlightAware Transoceanic
10:31PM 44.1036 -45.6891 270° West 487 560 35,000  Level FlightAware Transoceanic
10:32PM 44.1025 -45.8768 269° West 487 560 35,000  Level FlightAware Transoceanic
10:33PM 44.1011 -46.0644 269° West 487 560 35,000  Level FlightAware Transoceanic
10:34PM 44.0993 -46.2521 269° West 487 560 35,000  Level FlightAware Transoceanic
10:35PM 44.0973 -46.4397 269° West 487 560 35,000  Level FlightAware Transoceanic
10:35PM 44.1000 -46.5833 269° West 476 548 35,000  Level New York Oceanic (ODAPS)
10:36PM 44.0949 -46.6273 269° West 487 560 35,000  Level FlightAware Transoceanic
10:37PM 44.0922 -46.8149 269° West 487 560 35,000  Level FlightAware Transoceanic
10:38PM 44.0893 -47.0025 269° West 487 560 35,000  Level FlightAware Transoceanic
10:39PM 44.0860 -47.1901 269° West 487 560 35,000  Level FlightAware Transoceanic
10:40PM 44.0824 -47.3777 268° West 487 560 35,000  Level FlightAware Transoceanic
10:41PM 44.0785 -47.5652 268° West 487 560 35,000  Level FlightAware Transoceanic
10:42PM 44.0780 -47.7234 268° West 476 548 35,000  Level FlightAware Transoceanic
10:43PM 44.0732 -47.9134 268° West 476 548 35,000  Level FlightAware Transoceanic
10:44PM 44.0681 -48.1032 268° West 476 548 35,000  Level FlightAware Transoceanic
10:45PM 44.0627 -48.2931 268° West 476 548 35,000  Level FlightAware Transoceanic
10:46PM 44.0570 -48.4829 268° West 476 548 35,000  Level FlightAware Transoceanic
10:47PM 44.0510 -48.6727 267° West 476 548 35,000  Level FlightAware Transoceanic
10:48PM 44.0446 -48.8625 267° West 476 548 35,000  Level FlightAware Transoceanic
10:49PM 44.0380 -49.0522 267° West 476 548 35,000  Level FlightAware Transoceanic
10:49PM 44.0333 -49.1000 267° West 465 535 35,000  Level New York Oceanic (ODAPS)
10:50PM 44.0310 -49.2418 267° West 476 548 35,000  Level FlightAware Transoceanic
10:51PM 44.0237 -49.4314 267° West 476 548 35,000  Level FlightAware Transoceanic
10:52PM 44.0161 -49.6210 267° West 476 548 35,000  Level FlightAware Transoceanic
10:53PM 44.0082 -49.8105 267° West 476 548 35,000  Level FlightAware Transoceanic
10:54PM 44.0000 -50.0000 274° West 476 548 35,000  Level FlightAware Transoceanic
10:54PM 44.0000 -50.0000 274° West 471 542 35,000  Level New York Oceanic (ODAPS)
10:55PM 44.0093 -50.1757 274° West 465 535 35,000  Level FlightAware Transoceanic
10:56PM 44.0184 -50.3514 274° West 465 535 35,000  Level FlightAware Transoceanic
10:57PM 44.0271 -50.5272 274° West 465 535 35,000  Level FlightAware Transoceanic
10:58PM 44.0356 -50.7031 274° West 465 535 35,000  Level FlightAware Transoceanic
10:59PM 44.0439 -50.8790 274° West 465 535 35,000  Level FlightAware Transoceanic
11:00PM 44.0519 -51.0549 274° West 465 535 35,000  Level FlightAware Transoceanic
11:01PM 44.0596 -51.2309 273° West 471 542 35,000  Level FlightAware Transoceanic
11:01PM 44.0500 -51.2167 273° West 470 541 35,000  Level Gander Center
11:02PM 44.0670 -51.4070 273° West 471 542 35,000  Level FlightAware Transoceanic
11:02PM 44.0667 -51.4167 277° West 480 552 35,000 2,400 Level Gander Center
11:02PM 43.8167 -68.7000 275° West 630 725 37,000  Climbing Moncton Center
11:03PM 44.0741 -51.5830 273° West 471 542 35,000 -3,660 Descending FlightAware Transoceanic
11:03PM 44.0833 -51.6167 273° West 477 549 35,000 2,400 Level New York Oceanic (ODAPS)
11:03PM 43.9500 -68.5333 273° West 620 713 37,000  Climbing Moncton Center
11:04PM 44.0810 -51.7592 273° West 471 542 35,000  Descending FlightAware Transoceanic
11:04PM 44.0667 -68.3500 48° Northeast 620 713 37,000  Climbing Moncton Center
11:05PM 44.0877 -51.9353 273° West 471 542 35,000 -3,120 Descending FlightAware Transoceanic
11:05PM 44.0833 -51.9500 84° East 490 564 35,000 2,400 Level Gander Center
11:05PM 44.1833 -68.1667 276° West 630 725 37,000  Climbing Moncton Center
11:06PM 44.0940 -52.1115 273° West 471 542 35,000  Descending FlightAware Transoceanic
11:06PM 44.3000 -68.0167 43° Northeast 620 713 37,000 1,080 Climbing Moncton Center
11:07PM 44.4333 -67.8333 44° Northeast 620 713 37,000  Level Moncton Center
11:08PM 44.5333 -67.6500 53° Northeast 620 713 37,000 -1,260 Level Moncton Center
11:09PM 44.1167 -52.6833 87° East 480 552 35,000  Descending Gander Center
11:09PM 44.6667 -67.5000 278° West 620 713 37,000 360 Climbing Moncton Center
11:10PM 44.1333 -52.8667 88° East 480 552 35,400  Descending Gander Center
11:10PM 44.7833 -67.3000 279° West 620 713 37,000 600 Climbing Moncton Center
11:11PM 44.1500 -53.0500 89° East 470 541 36,000  Descending Gander Center
11:11PM 44.9000 -67.1333 279° West 620 713 37,000 720 Climbing Moncton Center
11:12PM 45.0333 -66.9833 38° Northeast 620 713 37,000 -660 Level Moncton Center
11:13PM 44.2000 -53.4167 90° East 470 541 36,000 -660 Descending Gander Center
11:14PM 44.2167 -53.5833 278° West 470 541 36,000  Level Gander Center
11:15PM 44.2500 -53.7667 284° West 470 541 36,000  Level Gander Center
11:16PM 44.2833 -53.9500 284° West 460 529 36,000  Level Gander Center
11:17PM 44.3000 -54.1000 279° West 460 529 36,000  Level Gander Center
11:18PM 44.3333 -54.2833 284° West 470 541 36,000  Level Gander Center
11:19PM 44.3500 -54.4833 277° West 460 529 36,000  Level Gander Center
11:20PM 44.3667 -54.6667 277° West 460 529 36,000  Level Gander Center
11:21PM 44.4000 -54.8167 287° West 470 541 36,000  Level Gander Center
11:22PM 44.4333 -55.0000 284° West 450 518 36,000  Level Gander Center
11:23PM 44.4333 -55.1667 270° West 460 529 36,000  Level Gander Center
11:24PM 44.4667 -55.3500 284° West 450 518 36,000  Level Gander Center
11:30PM 44.6020 -56.4020 284° West 449 517 36,000  Level FlightAware
11:31PM 44.6130 -56.5000 279° West 449 517 36,000  Level FlightAware
11:31PM 44.6240 -56.5980 279° West 449 517 36,000  Level FlightAware
11:32PM 44.6460 -56.7800 280° West 446 513 36,000  Level FlightAware
11:33PM 44.6550 -56.8660 278° West 444 511 36,000  Level FlightAware
11:33PM 44.6690 -56.9930 279° West 443 510 36,000  Level FlightAware
11:34PM 44.6850 -57.1370 279° West 440 506 36,000  Level FlightAware
11:35PM 44.6980 -57.2520 279° West 440 506 36,000  Level FlightAware
11:35PM 44.7080 -57.3450 279° West 440 506 36,000  Level FlightAware
11:36PM 44.7220 -57.4770 279° West 437 503 36,000  Level FlightAware
11:37PM 44.7310 -57.5710 278° West 437 503 36,000  Level FlightAware
11:38PM 44.7480 -57.7210 279° West 434 499 36,000  Level FlightAware
11:38PM 44.7600 -57.8410 278° West 430 495 36,000  Level FlightAware
11:39PM 44.7720 -57.9630 278° West 424 488 36,000  Level FlightAware
11:40PM 44.7770 -58.0700 274° West 419 482 36,000  Level FlightAware
11:40PM 44.7770 -58.1780 270° West 418 481 36,000  Level FlightAware
11:41PM 44.7760 -58.3040 269° West 420 483 36,000  Level FlightAware
11:42PM 44.7750 -58.4120 269° West 420 483 36,000  Level FlightAware
11:42PM 44.7740 -58.5230 269° West 420 483 36,000  Level FlightAware
11:43PM 44.7720 -58.6420 269° West 421 484 36,000  Level FlightAware
11:44PM 44.7700 -58.7530 269° West 420 483 36,000  Level FlightAware
11:45PM 44.7690 -58.8760 269° West 418 481 36,000  Level FlightAware
11:45PM 44.7670 -58.9680 268° West 416 479 36,000  Level FlightAware
11:46PM 44.7650 -59.0930 269° West 416 479 36,000  Level FlightAware
11:47PM 44.7630 -59.2130 269° West 417 480 36,000  Level FlightAware
11:47PM 44.7610 -59.3200 269° West 417 480 36,000  Level FlightAware
11:48PM 44.7580 -59.4440 268° West 415 478 36,000  Level FlightAware
11:49PM 44.7560 -59.5540 269° West 412 474 36,000  Level FlightAware
11:50PM 44.7540 -59.6690 269° West 410 472 36,000  Level FlightAware
11:50PM 44.7510 -59.7760 268° West 409 471 36,000  Level FlightAware
11:51PM 44.7490 -59.8830 269° West 410 472 36,000  Level FlightAware
11:52PM 44.7460 -60.0050 268° West 410 472 36,000  Level FlightAware
11:52PM 44.7430 -60.1110 268° West 407 468 36,000  Level FlightAware
11:53PM 44.7400 -60.2180 268° West 406 467 36,000  Level FlightAware
11:54PM 44.7370 -60.3320 268° West 404 465 36,000  Level FlightAware
11:54PM 44.7340 -60.4370 268° West 402 463 36,000  Level FlightAware
11:55PM 44.7310 -60.5330 268° West 400 460 36,000  Level FlightAware
11:56PM 44.7270 -60.6550 267° West 399 459 36,000  Level FlightAware
11:57PM 44.7230 -60.7610 267° West 398 458 36,000  Level FlightAware
11:57PM 44.7210 -60.8610 268° West 398 458 36,000 360 Level FlightAware
11:58PM 44.7170 -60.9790 267° West 400 460 36,500 480 Climbing FlightAware
11:59PM 44.7130 -61.0870 267° West 398 458 36,800 180 Climbing FlightAware
11:59PM 44.7090 -61.1750 266° West 398 458 36,800  Level FlightAware
12:00AM 44.7060 -61.2630 267° West 398 458 36,800  Level FlightAware
12:01AM 44.7030 -61.3510 267° West 398 458 36,800  Level FlightAware
12:01AM 44.7000 -61.4390 267° West 398 458 36,800  Level FlightAware
12:02AM 44.6960 -61.5260 266° West 398 458 36,800  Level FlightAware
12:03AM 44.6920 -61.6360 267° West 398 458 36,800  Level FlightAware
12:03AM 44.6890 -61.7240 267° West 398 458 36,800  Level FlightAware
12:04AM 44.6860 -61.8120 267° West 398 458 36,800  Level FlightAware
12:05AM 44.6820 -61.9000 266° West 398 458 36,800  Level FlightAware
12:06AM 44.6780 -62.0100 267° West 398 458 36,800  Level FlightAware
12:06AM 44.6750 -62.0980 267° West 398 458 36,800  Level FlightAware
12:07AM 44.6710 -62.2080 267° West 398 458 36,800  Level FlightAware
12:08AM 44.6670 -62.3180 267° West 398 458 36,800 180 Level FlightAware
12:12AM 44.6200 -63.1870 266° West 389 448 38,000 240 Climbing FlightAware
12:13AM 44.6160 -63.2750 266° West 388 447 38,000  Level FlightAware
12:14AM 44.6070 -63.4210 265° West 389 448 38,000  Level FlightAware
12:15AM 44.6010 -63.5380 266° West 387 445 38,000  Level FlightAware
12:18AM 44.5730 -64.0080 265° West 367 422 38,000  Level FlightAware
12:19AM 44.5670 -64.1190 266° West 366 421 38,000  Level FlightAware
12:19AM 44.5620 -64.2020 265° West 364 419 38,000  Level FlightAware
12:20AM 44.5550 -64.3080 265° West 369 425 38,000  Level FlightAware
12:21AM 44.5480 -64.4140 265° West 360 414 38,000  Level FlightAware
12:21AM 44.5420 -64.5060 265° West 359 413 38,000  Level FlightAware
12:22AM 44.5350 -64.6130 265° West 361 415 38,000  Level FlightAware
12:23AM 44.5290 -64.6990 264° West 360 414 38,000  Level FlightAware
12:24AM 44.5230 -64.7950 265° West 358 412 38,000  Level FlightAware
12:24AM 44.5160 -64.9000 265° West 358 412 38,000  Level FlightAware
12:25AM 44.5090 -64.9930 264° West 359 413 38,000  Level FlightAware
12:26AM 44.5020 -65.0970 265° West 359 413 38,000  Level FlightAware
12:26AM 44.4950 -65.1910 264° West 359 413 38,000  Level FlightAware
12:27AM 44.4890 -65.2840 265° West 358 412 38,000  Level FlightAware
12:28AM 44.4810 -65.3860 264° West 357 411 38,000  Level FlightAware
12:28AM 44.4740 -65.4780 264° West 358 412 38,000  Level FlightAware
12:29AM 44.4670 -65.5850 265° West 357 411 38,000  Level FlightAware
12:30AM 44.4600 -65.6720 264° West 356 410 38,000  Level FlightAware
12:31AM 44.4530 -65.7620 264° West 353 406 38,000  Level FlightAware
12:31AM 44.4450 -65.8650 264° West 352 405 38,000  Level FlightAware
12:32AM 44.4390 -65.9440 264° West 352 405 38,000  Level FlightAware
12:33AM 44.4300 -66.0590 264° West 352 405 38,000  Level FlightAware
12:33AM 44.4230 -66.1510 264° West 351 404 38,000  Level FlightAware
12:34AM 44.4160 -66.2370 264° West 350 403 38,000  Level FlightAware
12:35AM 44.4070 -66.3430 263° West 349 402 38,000  Level FlightAware
12:35AM 44.4000 -66.4290 264° West 349 402 38,000  Level FlightAware
12:36AM 44.3930 -66.5170 264° West 350 403 38,000  Level FlightAware
12:37AM 44.3850 -66.6180 264° West 350 403 38,000  Level FlightAware
12:38AM 44.3770 -66.7100 263° West 353 406 38,000  Level FlightAware
12:38AM 44.3680 -66.8170 263° West 358 412 38,000  Level FlightAware
12:39AM 44.3600 -66.9050 263° West 359 413 38,000  Level FlightAware
12:40AM 44.3510 -67.0070 263° West 360 414 38,000  Level FlightAware
12:40AM 44.3430 -67.1010 263° West 358 412 38,000  Level FlightAware
12:41AM 44.3350 -67.1950 263° West 358 412 38,000  Level FlightAware
12:42AM 44.3260 -67.2960 263° West 357 411 38,000  Level FlightAware
12:42AM 44.3170 -67.3900 262° West 357 411 38,000  Level FlightAware
12:43AM 44.3090 -67.4790 263° West 358 412 38,000  Level FlightAware
12:44AM 44.2990 -67.5850 263° West 360 414 38,000  Level FlightAware
12:45AM 44.2910 -67.6760 263° West 362 417 38,000  Level FlightAware
12:45AM 44.2820 -67.7690 262° West 364 419 38,000  Level FlightAware
12:46AM 44.2720 -67.8750 263° West 363 418 38,000  Level FlightAware
12:47AM 44.2630 -67.9650 262° West 361 415 38,000  Level FlightAware
12:47AM 44.2530 -68.0700 262° West 363 418 38,000  Level FlightAware
12:48AM 44.2440 -68.1620 262° West 363 418 38,000  Level FlightAware
12:49AM 44.2350 -68.2550 262° West 364 419 38,000  Level FlightAware
12:49AM 44.2250 -68.3560 262° West 363 418 38,000  Level FlightAware
12:50AM 44.2170 -68.4420 263° West 362 417 38,000  Level FlightAware
12:51AM 44.2050 -68.5570 262° West 362 417 38,000  Level FlightAware
12:52AM 44.1960 -68.6500 262° West 362 417 38,000  Level FlightAware
12:52AM 44.1850 -68.7510 261° West 366 421 38,000  Level FlightAware
12:53AM 44.1760 -68.8410 262° West 365 420 38,000  Level FlightAware
12:54AM 44.1660 -68.9380 262° West 364 419 38,000  Level FlightAware
12:54AM 44.1550 -69.0380 261° West 362 417 38,000  Level FlightAware
12:55AM 44.1450 -69.1380 262° West 366 421 38,000  Level FlightAware
12:56AM 44.1340 -69.2380 261° West 369 425 38,000  Level FlightAware
12:56AM 44.1240 -69.3350 262° West 371 427 38,000  Level FlightAware
12:57AM 44.1120 -69.4430 261° West 378 435 38,000  Level FlightAware
12:58AM 44.1010 -69.5420 261° West 377 434 38,000  Level FlightAware
12:59AM 44.0910 -69.6350 262° West 375 432 38,000  Level FlightAware
12:59AM 44.0790 -69.7410 261° West 378 435 38,000  Level FlightAware
01:00AM 44.0680 -69.8380 261° West 379 436 38,000  Level FlightAware
01:01AM 44.0570 -69.9350 261° West 381 438 38,000  Level FlightAware
01:01AM 44.0440 -70.0460 261° West 382 440 38,000  Level FlightAware
01:02AM 44.0330 -70.1420 261° West 384 442 38,000  Level FlightAware
01:03AM 44.0210 -70.2490 261° West 385 443 38,000  Level FlightAware
01:03AM 44.0090 -70.3480 260° West 384 442 38,000  Level FlightAware
01:04AM 43.9980 -70.4450 261° West 384 442 38,000  Level FlightAware
01:05AM 43.9850 -70.5560 261° West 382 440 38,000  Level FlightAware
01:06AM 43.9730 -70.6510 260° West 379 436 38,000  Level FlightAware
01:06AM 43.9600 -70.7590 261° West 380 437 38,000  Level FlightAware
01:07AM 43.9490 -70.8540 261° West 381 438 38,000  Level FlightAware
01:08AM 43.9350 -70.9630 260° West 382 440 38,000  Level FlightAware
01:08AM 43.9230 -71.0610 260° West 384 442 38,000  Level FlightAware
01:09AM 43.9110 -71.1600 260° West 386 444 38,000  Level FlightAware
01:10AM 43.8980 -71.2670 260° West 387 445 38,000  Level FlightAware
01:10AM 43.8850 -71.3650 260° West 387 445 38,000  Level FlightAware
01:11AM 43.8730 -71.4610 260° West 388 447 38,000  Level FlightAware
01:12AM 43.8580 -71.5760 260° West 389 448 38,000  Level FlightAware
01:13AM 43.8450 -71.6740 260° West 392 451 38,000  Level FlightAware
01:13AM 43.8320 -71.7810 260° West 391 450 38,000  Level FlightAware
01:14AM 43.8190 -71.8800 260° West 393 452 38,000  Level FlightAware
01:15AM 43.8030 -71.9940 259° West 398 458 38,000  Level FlightAware
01:15AM 43.7900 -72.0960 260° West 401 461 38,000  Level FlightAware
01:16AM 43.7760 -72.1980 259° West 405 466 38,000  Level FlightAware
01:17AM 43.7610 -72.3100 260° West 406 467 38,000  Level FlightAware
01:17AM 43.7470 -72.4120 259° West 405 466 38,000  Level FlightAware
01:18AM 43.7310 -72.5290 259° West 399 459 38,000  Level FlightAware
01:19AM 43.7180 -72.6270 260° West 399 459 38,000  Level FlightAware
01:20AM 43.7030 -72.7300 259° West 403 464 38,000  Level FlightAware
01:20AM 43.6880 -72.8390 259° West 405 466 38,000  Level FlightAware
01:21AM 43.6730 -72.9420 259° West 411 473 38,000  Level FlightAware
01:22AM 43.6560 -73.0620 259° West 412 474 38,000  Level FlightAware
01:22AM 43.6420 -73.1640 259° West 414 476 38,000  Level FlightAware
01:23AM 43.6280 -73.2610 259° West 413 475 38,000  Level FlightAware
01:24AM 43.6100 -73.3810 258° West 412 474 38,000  Level FlightAware
01:24AM 43.5960 -73.4820 259° West 409 471 38,000  Level FlightAware
01:25AM 43.5800 -73.5860 258° West 407 468 38,000  Level FlightAware
01:26AM 43.5630 -73.7010 259° West 405 466 38,000  Level FlightAware
01:27AM 43.5480 -73.8020 258° West 403 464 38,000  Level FlightAware
01:27AM 43.5310 -73.9130 258° West 403 464 38,000  Level FlightAware
01:28AM 43.5160 -74.0150 259° West 401 461 38,000  Level FlightAware
01:29AM 43.5010 -74.1150 258° West 401 461 38,000  Level FlightAware
01:29AM 43.4840 -74.2260 258° West 404 465 38,000  Level FlightAware
01:31AM 43.4510 -74.4380 258° West 404 465 38,000  Level FlightAware
01:31AM 43.4350 -74.5410 258° West 407 468 38,000  Level FlightAware
01:32AM 43.4190 -74.6420 258° West 410 472 38,000  Level FlightAware
01:33AM 43.4000 -74.7580 257° West 411 473 38,000  Level FlightAware
01:34AM 43.3880 -74.8340 258° West 412 474 38,000  Level FlightAware
01:34AM 43.3700 -74.9480 258° West 413 475 38,000  Level FlightAware
01:35AM 43.3530 -75.0520 257° West 413 475 38,000  Level FlightAware
01:36AM 43.3340 -75.1710 258° West 418 481 38,000  Level FlightAware
01:36AM 43.3180 -75.2690 257° West 419 482 38,000  Level FlightAware
01:37AM 43.3010 -75.3750 258° West 417 480 38,000  Level FlightAware
01:38AM 43.2720 -75.4880 251° West 410 472 38,000  Level FlightAware
01:38AM 43.2340 -75.5730 238° Southwest 410 472 38,000  Level FlightAware
01:39AM 43.1830 -75.6750 236° Southwest 410 472 38,000  Level FlightAware
01:40AM 43.1400 -75.7610 236° Southwest 410 472 38,000  Level FlightAware
01:41AM 43.0980 -75.8440 235° Southwest 411 473 38,000  Level FlightAware
01:41AM 43.0500 -75.9400 236° Southwest 412 474 38,000  Level FlightAware
01:42AM 43.0060 -76.0260 235° Southwest 413 475 38,000  Level FlightAware
01:43AM 42.9620 -76.1150 236° Southwest 413 475 38,000  Level FlightAware
01:43AM 42.9130 -76.2150 236° Southwest 413 475 38,000  Level FlightAware
01:44AM 42.8730 -76.2980 237° Southwest 414 476 38,000  Level FlightAware
01:45AM 42.8240 -76.3980 236° Southwest 414 476 38,000  Level FlightAware
01:45AM 42.7810 -76.4850 236° Southwest 414 476 38,000  Level FlightAware
01:46AM 42.7320 -76.5840 236° Southwest 416 479 38,000  Level FlightAware
01:47AM 42.6900 -76.6690 236° Southwest 415 478 38,000  Level FlightAware
01:48AM 42.6470 -76.7550 236° Southwest 413 475 38,000  Level FlightAware
01:48AM 42.5980 -76.8530 236° Southwest 414 476 38,000  Level FlightAware
01:49AM 42.5560 -76.9370 236° Southwest 415 478 38,000  Level FlightAware
01:50AM 42.5150 -77.0190 236° Southwest 414 476 38,000  Level FlightAware
01:50AM 42.4640 -77.1220 236° Southwest 416 479 38,000  Level FlightAware
01:51AM 42.4200 -77.2070 235° Southwest 416 479 38,000  Level FlightAware
01:52AM 42.3700 -77.3060 236° Southwest 415 478 38,000  Level FlightAware
01:52AM 42.3270 -77.3910 236° Southwest 414 476 38,000  Level FlightAware
01:53AM 42.2800 -77.4850 236° Southwest 414 476 38,000  Level FlightAware
01:54AM 42.2350 -77.5720 235° Southwest 415 478 38,000  Level FlightAware
01:55AM 42.1850 -77.6680 235° Southwest 415 478 38,000  Level FlightAware
01:55AM 42.1410 -77.7530 235° Southwest 417 480 38,000  Level FlightAware
01:56AM 42.0960 -77.8390 235° Southwest 416 479 38,000  Level FlightAware
01:57AM 42.0530 -77.9220 235° Southwest 417 480 38,000  Level FlightAware
01:57AM 42.0030 -78.0170 235° Southwest 418 481 38,000  Level FlightAware
01:58AM 41.9580 -78.1020 235° Southwest 417 480 38,000  Level FlightAware
01:59AM 41.9090 -78.1960 235° Southwest 418 481 38,000  Level FlightAware
01:59AM 41.8640 -78.2810 235° Southwest 419 482 38,000  Level FlightAware
02:00AM 41.8150 -78.3750 235° Southwest 417 480 38,000  Level FlightAware
02:01AM 41.7690 -78.4600 234° Southwest 418 481 38,000  Level FlightAware
02:02AM 41.7250 -78.5440 235° Southwest 418 481 38,000  Level FlightAware
02:02AM 41.6740 -78.6380 234° Southwest 419 482 38,000  Level FlightAware
02:03AM 41.6290 -78.7230 235° Southwest 419 482 38,000  Level FlightAware
02:04AM 41.5790 -78.8160 234° Southwest 418 481 38,000  Level FlightAware
02:04AM 41.5340 -78.9000 234° Southwest 419 482 38,000  Level FlightAware
02:05AM 41.4890 -78.9830 234° Southwest 419 482 38,000  Level FlightAware
02:06AM 41.4390 -79.0740 234° Southwest 421 484 38,000  Level FlightAware
02:06AM 41.3920 -79.1610 234° Southwest 424 488 38,000  Level FlightAware
02:07AM 41.3460 -79.2460 234° Southwest 424 488 38,000  Level FlightAware
02:08AM 41.2940 -79.3400 234° Southwest 425 489 38,000  Level FlightAware
02:09AM 41.2480 -79.4250 234° Southwest 425 489 38,000  Level FlightAware
02:09AM 41.1950 -79.5210 234° Southwest 425 489 38,000  Level FlightAware
02:10AM 41.1490 -79.6030 233° Southwest 425 489 38,000  Level FlightAware
02:11AM 41.1020 -79.6890 234° Southwest 425 489 38,000  Level FlightAware
02:11AM 41.0520 -79.7790 234° Southwest 425 489 38,000  Level FlightAware
02:12AM 41.0030 -79.8670 234° Southwest 425 489 38,000  Level FlightAware
02:13AM 40.9510 -79.9610 234° Southwest 426 490 38,000  Level FlightAware
02:13AM 40.9060 -80.0410 233° Southwest 427 491 38,000  Level FlightAware
02:14AM 40.8580 -80.1270 234° Southwest 427 491 38,000  Level FlightAware
02:15AM 40.8020 -80.2260 233° Southwest 428 493 38,000  Level FlightAware
02:16AM 40.7550 -80.3090 233° Southwest 428 493 38,000  Level FlightAware
02:16AM 40.7080 -80.3930 234° Southwest 428 493 38,000  Level FlightAware
02:17AM 40.6550 -80.4860 233° Southwest 427 491 38,000  Level FlightAware
02:18AM 40.6130 -80.5600 233° Southwest 425 489 38,000  Level FlightAware
02:18AM 40.5540 -80.6630 233° Southwest 423 487 38,000  Level FlightAware
02:19AM 40.4980 -80.7610 233° Southwest 422 486 38,000  Level FlightAware
02:20AM 40.4440 -80.8550 233° Southwest 421 484 38,000  Level FlightAware
02:20AM 40.3970 -80.9370 233° Southwest 420 483 38,000  Level FlightAware
02:21AM 40.3500 -81.0180 233° Southwest 420 483 38,000  Level FlightAware
02:22AM 40.2980 -81.1080 233° Southwest 420 483 38,000  Level FlightAware
02:23AM 40.2490 -81.1920 233° Southwest 421 484 38,000  Level FlightAware
02:23AM 40.1960 -81.2820 232° Southwest 421 484 38,000  Level FlightAware
02:24AM 40.1490 -81.3630 233° Southwest 421 484 38,000  Level FlightAware
02:25AM 40.1020 -81.4450 233° Southwest 421 484 38,000  Level FlightAware
02:25AM 40.0470 -81.5370 232° Southwest 421 484 38,000  Level FlightAware
02:26AM 40.0000 -81.6180 233° Southwest 421 484 38,000  Level FlightAware
02:27AM 39.9480 -81.7060 232° Southwest 422 486 38,000  Level FlightAware
02:27AM 39.9000 -81.7870 232° Southwest 422 486 38,000  Level FlightAware
02:28AM 39.8510 -81.8690 232° Southwest 423 487 38,000  Level FlightAware
02:29AM 39.7970 -81.9600 232° Southwest 422 486 38,000  Level FlightAware
02:30AM 39.7490 -82.0410 232° Southwest 423 487 38,000  Level FlightAware
02:30AM 39.7010 -82.1210 232° Southwest 424 488 38,000  Level FlightAware
02:31AM 39.6470 -82.2100 232° Southwest 426 490 38,000  Level FlightAware
02:32AM 39.5990 -82.2900 232° Southwest 429 494 38,000  Level FlightAware
02:32AM 39.5430 -82.3840 232° Southwest 428 493 38,000  Level FlightAware
02:33AM 39.4960 -82.4610 232° Southwest 431 496 38,000  Level FlightAware
02:34AM 39.4390 -82.5550 232° Southwest 432 497 38,000  Level FlightAware
02:34AM 39.3900 -82.6360 232° Southwest 433 498 38,000  Level FlightAware
02:35AM 39.3410 -82.7160 232° Southwest 432 497 38,000  Level FlightAware
02:36AM 39.2840 -82.8090 232° Southwest 430 495 38,000  Level FlightAware
02:37AM 39.2350 -82.8890 232° Southwest 428 493 38,000  Level FlightAware
02:37AM 39.1830 -82.9740 232° Southwest 426 490 38,000  Level FlightAware
02:38AM 39.1310 -83.0580 231° Southwest 424 488 38,000  Level FlightAware
02:39AM 39.0830 -83.1370 232° Southwest 424 488 38,000  Level FlightAware
02:39AM 39.0290 -83.2230 231° Southwest 426 490 38,000  Level FlightAware
02:40AM 38.9820 -83.2990 232° Southwest 426 490 38,000  Level FlightAware
02:41AM 38.9280 -83.3860 231° Southwest 426 490 38,000  Level FlightAware
02:41AM 38.8730 -83.4730 231° Southwest 424 488 38,000  Level FlightAware
02:42AM 38.8240 -83.5510 231° Southwest 424 488 38,000  Level FlightAware
02:43AM 38.7730 -83.6330 231° Southwest 424 488 38,000  Level FlightAware
02:44AM 38.7200 -83.7180 231° Southwest 426 490 38,000  Level FlightAware
02:44AM 38.6610 -83.8110 231° Southwest 427 491 38,000  Level FlightAware
02:45AM 38.6100 -83.8920 231° Southwest 427 491 38,000  Level FlightAware
02:46AM 38.5680 -83.9580 231° Southwest 427 491 38,000  Level FlightAware
02:46AM 38.5250 -84.0250 231° Southwest 427 491 38,000  Level FlightAware
02:47AM 38.4430 -84.1540 231° Southwest 426 490 38,000  Level FlightAware
02:48AM 38.3730 -84.2640 231° Southwest 425 489 38,000  Level FlightAware
02:48AM 38.3514 -84.2977 231° Southwest 426 490 38,000  Level FlightAware ADS-B
02:50AM 38.2750 -84.4170 231° Southwest 424 488 38,000  Level FlightAware
02:50AM 38.2200 -84.5018 230° Southwest 425 489 38,000  Level FlightAware ADS-B
02:51AM 38.1812 -84.5617 231° Southwest 425 489 38,000  Level FlightAware ADS-B
02:51AM 38.1418 -84.6227 231° Southwest 425 489 38,000  Level FlightAware ADS-B
02:52AM 38.1050 -84.6800 231° Southwest 424 488 38,000  Level FlightAware
02:52AM 38.0917 -84.7000 230° Southwest 424 488 38,000  Level FlightAware ADS-B
02:52AM 38.0539 -84.7581 230° Southwest 424 488 38,000  Level FlightAware ADS-B
02:53AM 38.0162 -84.8161 230° Southwest 426 490 38,000  Level FlightAware ADS-B
02:53AM 37.9778 -84.8749 230° Southwest 425 489 38,000  Level FlightAware ADS-B
02:54AM 37.9403 -84.9325 230° Southwest 423 487 38,000  Level FlightAware ADS-B
02:54AM 37.9023 -84.9904 230° Southwest 423 487 38,000  Level FlightAware ADS-B
02:55AM 37.8641 -85.0487 230° Southwest 422 486 38,000  Level FlightAware ADS-B
02:56AM 37.8230 -85.1111 230° Southwest 423 487 38,000  Level FlightAware ADS-B
02:56AM 37.7851 -85.1686 230° Southwest 424 488 38,000  Level FlightAware ADS-B
02:57AM 37.7465 -85.2273 230° Southwest 425 489 38,000  Level FlightAware ADS-B
02:57AM 37.6972 -85.3020 230° Southwest 424 488 38,000  Level FlightAware ADS-B
02:58AM 37.6588 -85.3601 230° Southwest 425 489 38,000  Level FlightAware ADS-B
02:58AM 37.6183 -85.4210 230° Southwest 425 489 38,000  Level FlightAware ADS-B
02:59AM 37.5799 -85.4788 230° Southwest 425 489 38,000  Level FlightAware ADS-B
02:59AM 37.5404 -85.5381 230° Southwest 426 490 38,000  Level FlightAware ADS-B
03:00AM 37.5014 -85.5966 230° Southwest 426 490 38,000  Level FlightAware ADS-B
03:00AM 37.4623 -85.6551 230° Southwest 426 490 38,000  Level FlightAware ADS-B
03:01AM 37.4228 -85.7141 230° Southwest 424 488 38,000  Level FlightAware ADS-B
03:01AM 37.3841 -85.7718 230° Southwest 424 488 38,000  Level FlightAware ADS-B
03:02AM 37.3454 -85.8294 230° Southwest 425 489 38,000  Level FlightAware ADS-B
03:02AM 37.3066 -85.8871 230° Southwest 425 489 38,000  Level FlightAware ADS-B
03:03AM 37.2681 -85.9443 230° Southwest 426 490 38,000  Level FlightAware ADS-B
03:03AM 37.2297 -86.0011 230° Southwest 424 488 38,000  Level FlightAware ADS-B
03:04AM 37.1913 -86.0578 230° Southwest 424 488 38,000  Level FlightAware ADS-B
03:04AM 37.1531 -86.1142 230° Southwest 424 488 38,000  Level FlightAware ADS-B
03:05AM 37.1135 -86.1727 230° Southwest 424 488 38,000  Level FlightAware ADS-B
03:05AM 37.0747 -86.2297 230° Southwest 425 489 38,000  Level FlightAware ADS-B
03:06AM 37.0428 -86.2766 230° Southwest 426 490 38,000  Level FlightAware ADS-B
03:06AM 37.0041 -86.3333 229° Southwest 426 490 38,000  Level FlightAware ADS-B
03:07AM 36.9651 -86.3905 230° Southwest 425 489 38,000  Level FlightAware ADS-B
03:07AM 36.9372 -86.4322 230° Southwest 423 487 38,000  Level FlightAware ADS-B
03:07AM 36.9174 -86.4656 233° Southwest 422 486 38,000  Level FlightAware ADS-B
03:08AM 36.8892 -86.5296 241° Southwest 419 482 38,000  Level FlightAware ADS-B
03:08AM 36.8614 -86.5964 243° Southwest 419 482 38,000  Level FlightAware ADS-B
03:09AM 36.8334 -86.6619 242° Southwest 418 481 38,000  Level FlightAware ADS-B
03:09AM 36.8047 -86.7269 241° Southwest 417 480 38,000  Level FlightAware ADS-B
03:10AM 36.7670 -86.8120 241° Southwest 416 479 38,000  Level FlightAware
03:10AM 36.7487 -86.8524 241° Southwest 417 480 38,000  Level FlightAware ADS-B
03:12AM 36.6920 -86.9780 241° Southwest 416 479 38,000  Level FlightAware
03:12AM 36.6490 -87.0760 241° Southwest 416 479 38,000  Level FlightAware
03:13AM 36.6110 -87.1600 241° Southwest 416 479 38,000  Level FlightAware
03:14AM 36.5700 -87.2520 241° Southwest 416 479 38,000  Level FlightAware
03:14AM 36.5330 -87.3350 241° Southwest 416 479 38,000  Level FlightAware
03:15AM 36.4950 -87.4190 241° Southwest 415 478 38,000  Level FlightAware
03:16AM 36.4510 -87.5150 240° Southwest 416 479 38,000  Level FlightAware
03:16AM 36.4140 -87.5970 241° Southwest 418 481 38,000  Level FlightAware
03:17AM 36.3760 -87.6820 241° Southwest 419 482 38,000 -540 Level FlightAware
03:18AM 36.3290 -87.7710 237° Southwest 416 479 37,300 -1,020 Descending FlightAware
03:19AM 36.2810 -87.8460 232° Southwest 415 478 36,600 -900 Descending FlightAware
03:19AM 36.2260 -87.9280 230° Southwest 415 478 36,100 -720 Descending FlightAware
03:20AM 36.1760 -88.0040 231° Southwest 421 484 35,600 -660 Descending FlightAware
03:21AM 36.1340 -88.0650 230° Southwest 429 494 35,300 -420 Descending FlightAware
03:21AM 36.0780 -88.1490 230° Southwest 434 499 35,100 -480 Descending FlightAware
03:22AM 36.0080 -88.2530 230° Southwest 431 496 34,500 -360 Descending FlightAware
03:23AM 35.9530 -88.3330 230° Southwest 431 496 34,500  Level FlightAware
03:24AM 35.9100 -88.3970 230° Southwest 431 496 34,500  Level FlightAware
03:24AM 35.8660 -88.4610 230° Southwest 431 496 34,500  Level FlightAware
03:25AM 35.8230 -88.5250 230° Southwest 431 496 34,500  Level FlightAware
03:26AM 35.7680 -88.6050 230° Southwest 431 496 34,500  Level FlightAware
03:27AM 35.7250 -88.6690 230° Southwest 431 496 34,500  Level FlightAware
03:27AM 35.6810 -88.7330 230° Southwest 431 496 34,500  Level FlightAware
03:28AM 35.6370 -88.7970 230° Southwest 431 496 34,500  Level FlightAware
03:29AM 35.5940 -88.8610 230° Southwest 431 496 34,500  Level FlightAware
03:29AM 35.5390 -88.9410 230° Southwest 431 496 34,500 -14,280 Level FlightAware
03:30AM 35.4500 -89.0500 242° Southwest 382 440 18,100  Descending KMEM
03:30AM 35.4960 -89.0050 230° Southwest 431 496 34,500 -2,520 Climbing FlightAware
03:30AM 35.4167 -89.1167 238° Southwest 380 437 16,700  Descending KMEM
03:31AM 35.4520 -89.0680 229° Southwest 431 496 34,500 -2,340 Climbing FlightAware
03:31AM 35.3500 -89.2167 231° Southwest 379 436 14,400  Descending KMEM
03:31AM 35.4090 -89.1320 231° Southwest 431 496 34,500 -2,220 Climbing FlightAware
03:32AM 35.2833 -89.3167 231° Southwest 371 427 12,200 -12,600 Descending KMEM
03:33AM 35.2167 -89.4000 226° Southwest 364 419 10,800 -960 Descending KMEM
03:34AM 35.2872 -89.4149 242° Southwest  Level Estimated
03:34AM 35.1500 -89.4833 226° Southwest 308 354 10,300  Level KMEM
03:35AM 35.2299 -89.5473 242° Southwest  Level Estimated
03:35AM 35.1000 -89.5667 234° Southwest 283 326 9,400  Level KMEM
03:36AM 35.0500 -89.6333 228° Southwest 282 325 8,200 -1,200 Descending KMEM
03:37AM 35.0000 -89.7000 228° Southwest 281 323 7,100 -1,140 Descending KMEM
03:38AM 34.9500 -89.7667 228° Southwest 274 315 6,000 -1,080 Descending KMEM
03:39AM 34.9167 -89.8333 239° Southwest 236 272 5,100 -1,020 Descending KMEM
03:40AM 34.9000 -89.9000 253° West 229 264 4,200 -1,320 Descending KMEM
03:41AM 34.9167 -89.9667 287° West 171 197 2,700 -1,200 Descending KMEM
03:42AM 34.9500 -89.9667 360° North 144 166 1,800 -900 Descending KMEM
03:43AM 35.0000 -89.9667 360° North 146 168 1,000 -840 Descending KMEM
03:45AM 35.0333 -89.9667 345° North  Level FlightAware Approximate
03:52AM 35.0424 -89.9767 345° North  Level Estimated
03:53AM 35.0424 -89.9767 345° North  Level Estimated
03:54AM 35.0424 -89.9767 345° North  Level Estimated
03:55AM 35.0424 -89.9767 345° North  Level Estimated
03:56AM 35.0424 -89.9767 345° North  Level Estimated
03:57AM 35.0424 -89.9767 345° North  Level Estimated
03:58AM 35.0424 -89.9767 345° North  Level Estimated
03:59AM 35.0424 -89.9767 345° North  Level Estimated
04:00AM 35.0424 -89.9767 345° North  Level Estimated
04:01AM 35.0424 -89.9767 345° North  Level Estimated
04:02AM 35.0424 -89.9767 345° North  Level Estimated